Time;durP1;ratioP1;P1;durP2;ratioP2;P2;SDS_P1;SDS_P2;PMS_P1;PMS_P2;Temp;Humidity;BMP_temperature;BMP_pressure;BME280_temperature;BME280_humidity;BME280_pressure;Samples;Min_cycle;Max_cycle;Signal;HPM_P1;HPM_P2
2023/04/10 00:02:09;;;;;;;13.10;6.87;;;8.20;99.90;;;;;;5092992;28;20032;-54
2023/04/10 00:04:34;;;;;;;10.87;6.17;;;8.10;99.90;;;;;;5093211;28;20288;-54
2023/04/10 00:07:00;;;;;;;11.83;6.80;;;8.10;99.90;;;;;;5093161;28;20418;-54
2023/04/10 00:09:26;;;;;;;8.63;5.97;;;8.10;99.90;;;;;;5092723;28;20032;-54
2023/04/10 00:11:53;;;;;;;9.03;5.87;;;8.10;99.90;;;;;;5092831;28;20063;-54
2023/04/10 00:14:22;;;;;;;10.77;6.13;;;8.10;99.90;;;;;;5092690;28;20059;-54
2023/04/10 00:16:50;;;;;;;9.55;6.40;;;8.10;99.90;;;;;;5092732;28;20043;-53
2023/04/10 00:19:16;;;;;;;10.13;6.18;;;8.00;99.90;;;;;;5092409;28;20050;-51
2023/04/10 00:21:42;;;;;;;11.27;6.67;;;8.00;99.90;;;;;;5092529;28;20101;-53
2023/04/10 00:24:08;;;;;;;9.30;6.50;;;8.00;99.90;;;;;;5092474;28;20499;-56
2023/04/10 00:26:37;;;;;;;9.23;6.47;;;8.10;99.90;;;;;;5092337;28;20036;-51
2023/04/10 00:29:02;;;;;;;8.77;6.05;;;8.10;99.90;;;;;;5092451;28;20038;-54
2023/04/10 00:31:29;;;;;;;9.40;6.33;;;8.10;99.90;;;;;;5092605;28;20107;-54
2023/04/10 00:33:55;;;;;;;9.70;6.27;;;8.10;99.90;;;;;;5092242;28;20388;-53
2023/04/10 00:36:21;;;;;;;11.40;6.93;;;8.10;99.90;;;;;;5092145;28;20107;-52
2023/04/10 00:38:47;;;;;;;9.97;6.60;;;8.00;99.90;;;;;;5092081;28;20027;-57
2023/04/10 00:41:13;;;;;;;9.53;5.97;;;8.00;99.90;;;;;;5092253;28;20024;-54
2023/04/10 00:43:38;;;;;;;10.37;6.10;;;8.00;99.90;;;;;;5090469;28;20031;-54
2023/04/10 00:46:06;;;;;;;9.67;5.90;;;8.00;99.90;;;;;;5092102;28;20396;-50
2023/04/10 00:48:33;;;;;;;11.07;6.33;;;8.00;99.90;;;;;;5090628;28;20081;-51
2023/04/10 00:50:59;;;;;;;9.77;6.10;;;8.00;99.90;;;;;;5092112;28;20101;-51
2023/04/10 00:53:25;;;;;;;10.30;6.30;;;8.00;99.90;;;;;;5091794;28;20515;-54
2023/04/10 00:55:52;;;;;;;9.83;6.30;;;8.00;99.90;;;;;;5091967;28;20103;-53
2023/04/10 00:58:18;;;;;;;11.00;6.37;;;8.00;99.90;;;;;;5091641;28;20040;-53
2023/04/10 01:00:46;;;;;;;9.37;6.17;;;8.00;99.90;;;;;;5090621;28;20080;-53
2023/04/10 01:03:14;;;;;;;9.33;6.23;;;8.10;99.90;;;;;;5090410;28;20032;-55
2023/04/10 01:06:17;;;;;;;9.70;6.43;;;8.10;99.90;;;;;;5091640;28;20032;-53
2023/04/10 01:08:48;;;;;;;10.70;6.03;;;8.10;99.90;;;;;;5091700;28;20036;-53
2023/04/10 01:11:20;;;;;;;9.27;6.10;;;8.20;99.90;;;;;;5090421;28;20024;-51
2023/04/10 01:14:04;;;;;;;9.37;5.77;;;8.20;99.90;;;;;;5091419;28;20028;-55
2023/04/10 01:16:52;;;;;;;9.90;6.47;;;8.20;99.90;;;;;;5090129;28;20031;-49
2023/04/10 01:19:59;;;;;;;11.70;6.63;;;8.20;99.90;;;;;;5103452;22;20394;-48
2023/04/10 01:22:36;;;;;;;10.00;6.30;;;8.20;99.90;;;;;;5091262;28;20032;-51
2023/04/10 01:25:22;;;;;;;9.57;6.13;;;8.20;99.90;;;;;;5090007;28;20050;-50
2023/04/10 01:28:26;;;;;;;9.87;6.53;;;8.20;99.90;;;;;;5079148;28;20032;-50
2023/04/10 01:30:57;;;;;;;9.67;6.07;;;8.20;99.90;;;;;;5055222;28;20392;-51
2023/04/10 01:33:29;;;;;;;10.90;6.77;;;8.20;99.90;;;;;;5069717;28;20241;-49
2023/04/10 01:35:58;;;;;;;9.97;6.50;;;8.30;99.90;;;;;;5070870;28;20396;-52
2023/04/10 01:38:27;;;;;;;8.25;5.85;;;8.30;99.90;;;;;;5069257;28;20118;-51
2023/04/10 01:40:54;;;;;;;10.25;6.68;;;8.40;99.90;;;;;;5070738;28;20025;-51
2023/04/10 01:43:32;;;;;;;11.13;6.97;;;8.40;99.90;;;;;;5069010;28;20029;-51
2023/04/10 01:45:58;;;;;;;10.67;6.40;;;8.40;99.90;;;;;;5069493;28;20307;-50
2023/04/10 01:48:25;;;;;;;10.60;6.70;;;8.40;99.90;;;;;;5069142;28;20033;-50
2023/04/10 01:50:51;;;;;;;10.60;6.90;;;8.40;99.90;;;;;;5069258;28;20400;-53
2023/04/10 01:53:18;;;;;;;10.93;6.73;;;8.50;99.90;;;;;;5070836;28;20090;-49
2023/04/10 01:55:44;;;;;;;10.77;6.50;;;8.50;99.90;;;;;;5069255;28;20064;-49
2023/04/10 01:58:11;;;;;;;11.03;6.67;;;8.50;99.90;;;;;;5069949;28;20401;-52
2023/04/10 02:00:41;;;;;;;8.73;5.97;;;8.50;99.90;;;;;;5069156;28;20036;-51
2023/04/10 02:03:09;;;;;;;10.77;6.33;;;8.50;99.90;;;;;;5069196;28;20404;-52
2023/04/10 02:05:40;;;;;;;10.23;6.77;;;8.50;99.90;;;;;;5068911;28;20032;-49
2023/04/10 02:08:18;;;;;;;11.40;6.80;;;8.50;99.90;;;;;;5070207;28;20531;-51
2023/04/10 02:11:06;;;;;;;9.95;6.43;;;8.50;99.90;;;;;;5069090;28;20032;-50
2023/04/10 02:13:34;;;;;;;10.70;6.70;;;8.50;99.90;;;;;;5068894;28;20036;-51
2023/04/10 02:16:05;;;;;;;10.27;6.57;;;8.50;99.90;;;;;;5068932;28;20032;-50
2023/04/10 02:18:33;;;;;;;10.77;6.97;;;8.50;99.90;;;;;;5068649;28;20036;-51
2023/04/10 02:20:59;;;;;;;11.88;7.50;;;8.50;99.90;;;;;;5068813;28;20028;-49
2023/04/10 02:23:25;;;;;;;11.37;6.60;;;8.40;99.90;;;;;;5070111;28;20043;-49
2023/04/10 02:25:55;;;;;;;11.43;7.07;;;8.40;99.90;;;;;;5070215;28;20031;-50
2023/04/10 02:28:21;;;;;;;9.90;6.70;;;8.50;99.90;;;;;;5068674;28;20029;-51
2023/04/10 02:30:47;;;;;;;9.20;6.40;;;8.40;99.90;;;;;;5068834;28;20244;-51
2023/04/10 02:33:13;;;;;;;10.37;6.70;;;8.30;99.90;;;;;;5070241;28;20036;-49
2023/04/10 02:35:39;;;;;;;10.30;6.77;;;8.30;99.90;;;;;;5068900;28;20119;-50
2023/04/10 02:38:04;;;;;;;11.77;7.17;;;8.20;99.90;;;;;;5069864;28;20028;-49
2023/04/10 02:40:35;;;;;;;10.63;6.60;;;8.20;99.90;;;;;;5068790;28;20036;-50
2023/04/10 02:43:12;;;;;;;10.90;6.90;;;8.10;99.90;;;;;;5068686;28;20493;-49
2023/04/10 02:45:39;;;;;;;12.70;7.23;;;8.10;99.90;;;;;;5068550;28;20050;-48
2023/04/10 02:48:06;;;;;;;12.13;7.27;;;8.10;99.90;;;;;;5068521;28;20086;-50
2023/04/10 02:50:33;;;;;;;11.50;6.90;;;8.20;99.90;;;;;;5068912;28;20032;-51
2023/04/10 02:53:00;;;;;;;12.20;7.13;;;8.20;99.90;;;;;;5068689;28;20578;-50
2023/04/10 02:55:25;;;;;;;11.90;7.33;;;8.20;99.90;;;;;;5070037;28;20036;-49
2023/04/10 02:57:51;;;;;;;11.00;7.00;;;8.10;99.90;;;;;;5069706;28;20029;-52
2023/04/10 03:00:18;;;;;;;12.33;7.43;;;8.10;99.90;;;;;;5051708;28;20029;-49
2023/04/10 03:03:04;;;;;;;12.87;7.50;;;8.00;99.90;;;;;;5037973;28;20040;-51
2023/04/10 03:05:38;;;;;;;10.73;6.87;;;8.00;99.90;;;;;;5068334;28;20558;-50
2023/04/10 03:08:04;;;;;;;12.30;7.30;;;8.00;99.90;;;;;;5068267;28;20036;-51
2023/04/10 03:10:30;;;;;;;11.97;7.57;;;8.00;99.90;;;;;;5070277;28;20040;-53
2023/04/10 03:12:56;;;;;;;11.83;7.40;;;8.00;99.90;;;;;;5072089;28;20499;-49
2023/04/10 03:15:21;;;;;;;13.87;8.00;;;8.00;99.90;;;;;;5073356;28;20455;-53
2023/04/10 03:17:47;;;;;;;10.93;7.13;;;7.90;99.90;;;;;;5071919;28;20028;-48
2023/04/10 03:20:14;;;;;;;12.97;7.33;;;8.00;99.90;;;;;;5073284;28;20035;-49
2023/04/10 03:22:40;;;;;;;11.03;6.90;;;7.90;99.90;;;;;;5073367;28;20025;-49
2023/04/10 03:25:08;;;;;;;12.40;7.40;;;7.90;99.90;;;;;;5071814;28;20454;-52
2023/04/10 03:27:33;;;;;;;10.77;6.60;;;7.80;99.90;;;;;;5073086;28;20042;-51
2023/04/10 03:30:01;;;;;;;12.27;7.03;;;7.80;99.90;;;;;;5073036;28;20481;-52
2023/04/10 03:32:29;;;;;;;12.00;6.97;;;7.80;99.90;;;;;;5073440;28;20064;-51
2023/04/10 03:34:57;;;;;;;10.13;6.65;;;7.70;99.90;;;;;;5071621;28;20374;-48
2023/04/10 03:37:23;;;;;;;9.83;6.40;;;7.70;99.90;;;;;;5071623;28;20028;-51
2023/04/10 03:39:49;;;;;;;11.27;6.97;;;7.70;99.90;;;;;;5071800;28;20107;-51
2023/04/10 03:42:14;;;;;;;10.03;6.53;;;7.70;99.90;;;;;;5071723;28;20081;-51
2023/04/10 03:44:40;;;;;;;10.13;6.57;;;7.60;99.90;;;;;;5073094;28;20597;-52
2023/04/10 03:47:07;;;;;;;11.60;7.07;;;7.60;99.90;;;;;;5071768;28;20063;-52
2023/04/10 03:49:33;;;;;;;10.23;6.80;;;7.60;99.90;;;;;;5071705;28;20497;-53
2023/04/10 03:52:04;;;;;;;11.17;7.30;;;7.60;99.90;;;;;;5071800;28;20508;-53
2023/04/10 03:54:30;;;;;;;10.90;6.70;;;7.50;99.90;;;;;;5071543;28;20060;-51
2023/04/10 03:56:56;;;;;;;11.00;6.37;;;7.40;99.90;;;;;;5071271;28;20505;-51
2023/04/10 03:59:22;;;;;;;12.03;7.20;;;7.40;99.90;;;;;;5071268;28;20028;-52
2023/04/10 04:01:48;;;;;;;11.57;6.97;;;7.40;99.90;;;;;;5072924;28;20362;-50
2023/04/10 04:04:13;;;;;;;9.67;6.50;;;7.30;99.90;;;;;;5072477;28;20512;-52
2023/04/10 04:06:57;;;;;;;10.83;6.40;;;7.30;99.90;;;;;;5072479;28;20131;-52
2023/04/10 04:09:32;;;;;;;13.10;7.20;;;7.20;99.90;;;;;;5072522;28;20032;-52
2023/04/10 04:12:14;;;;;;;11.30;6.90;;;7.10;99.90;;;;;;5071205;28;20060;-49
2023/04/10 04:14:58;;;;;;;10.60;6.73;;;7.10;99.90;;;;;;5072546;28;20430;-52
2023/04/10 04:17:50;;;;;;;11.97;6.80;;;7.00;99.90;;;;;;5068899;28;20040;-51
2023/04/10 04:20:34;;;;;;;11.30;6.87;;;7.00;99.90;;;;;;5072524;28;20076;-52
2023/04/10 04:23:18;;;;;;;12.20;7.00;;;6.90;99.90;;;;;;5070515;28;20029;-51
2023/04/10 04:26:02;;;;;;;11.83;6.67;;;6.90;99.90;;;;;;5072471;28;20035;-48
2023/04/10 04:28:54;;;;;;;11.83;7.10;;;6.80;99.90;;;;;;5055704;28;20028;-52
2023/04/10 04:31:38;;;;;;;11.90;6.93;;;6.80;99.90;;;;;;5070841;28;20082;-51
2023/04/10 04:34:03;;;;;;;11.47;7.07;;;6.70;99.90;;;;;;5071901;28;20527;-48
2023/04/10 04:36:47;;;;;;;13.00;7.50;;;6.70;99.90;;;;;;5072217;28;20079;-48
2023/04/10 04:39:45;;;;;;;11.13;7.27;;;6.60;99.90;;;;;;5037802;28;20480;-49
2023/04/10 04:42:30;;;;;;;11.50;7.00;;;6.50;99.90;;;;;;5070415;28;20049;-50
2023/04/10 04:45:17;;;;;;;12.47;7.70;;;6.50;99.90;;;;;;5070260;28;20024;-49
2023/04/10 04:48:03;;;;;;;11.50;6.93;;;6.40;99.90;;;;;;5071293;28;20067;-51
2023/04/10 04:50:48;;;;;;;11.20;6.83;;;6.40;99.90;;;;;;5071054;28;20120;-52
2023/04/10 04:53:34;;;;;;;12.30;7.30;;;6.30;99.90;;;;;;5070288;28;20508;-50
2023/04/10 04:56:23;;;;;;;11.93;7.35;;;6.20;99.90;;;;;;5042535;28;20044;-50
2023/04/10 04:59:07;;;;;;;10.73;6.80;;;6.20;99.90;;;;;;5071433;28;20118;-48
2023/04/10 05:01:51;;;;;;;10.70;7.07;;;6.20;99.90;;;;;;5071494;28;20094;-52
2023/04/10 05:04:24;;;;;;;13.53;7.83;;;6.20;99.90;;;;;;5069978;28;20484;-52
2023/04/10 05:07:05;;;;;;;13.70;7.73;;;6.20;99.90;;;;;;5070022;28;20038;-52
2023/04/10 05:09:49;;;;;;;14.17;7.73;;;6.20;99.90;;;;;;5069897;28;20163;-49
2023/04/10 05:12:33;;;;;;;12.20;6.67;;;6.20;99.90;;;;;;5071634;28;20052;-51
2023/04/10 05:15:05;;;;;;;10.77;6.60;;;6.30;99.90;;;;;;5069641;28;20140;-48
2023/04/10 05:17:57;;;;;;;13.30;6.43;;;6.40;99.90;;;;;;5067723;28;20082;-51
2023/04/10 05:20:39;;;;;;;13.80;7.93;;;6.60;99.90;;;;;;5069733;28;20437;-52
2023/04/10 05:23:23;;;;;;;10.07;6.40;;;6.70;99.90;;;;;;5070901;28;20052;-52
2023/04/10 05:25:52;;;;;;;10.30;6.27;;;6.80;99.90;;;;;;5071210;28;20037;-51
2023/04/10 05:28:36;;;;;;;10.43;6.10;;;7.00;99.90;;;;;;5070500;28;20071;-51
2023/04/10 05:31:20;;;;;;;11.27;7.00;;;7.30;99.90;;;;;;5070904;28;20156;-52
2023/04/10 05:33:50;;;;;;;15.17;9.20;;;7.40;99.90;;;;;;5068887;28;20030;-51
2023/04/10 05:36:42;;;;;;;12.00;7.20;;;7.50;99.90;;;;;;5067438;28;20033;-49
2023/04/10 05:39:21;;;;;;;;;;;7.70;99.90;;;;;;5070030;28;20446;-52
2023/04/10 05:42:05;;;;;;;10.03;6.33;;;7.80;99.90;;;;;;5070784;28;19920;-48
2023/04/10 05:44:49;;;;;;;11.07;7.10;;;8.10;99.90;;;;;;5069193;28;20054;-50
2023/04/10 05:47:34;;;;;;;9.93;6.60;;;8.30;99.90;;;;;;5070691;28;20658;-51
2023/04/10 05:50:29;;;;;;;8.87;6.00;;;8.50;99.90;;;;;;5057003;28;20117;-50
2023/04/10 05:53:19;;;;;;;10.02;6.03;;;8.90;99.90;;;;;;5070195;28;20516;-49
2023/04/10 05:56:14;;;;;;;10.67;6.57;;;9.30;99.90;;;;;;5069260;28;20082;-52
2023/04/10 05:58:45;;;;;;;9.80;6.07;;;9.60;99.90;;;;;;5069160;28;20133;-52
2023/04/10 06:01:13;;;;;;;9.47;6.33;;;10.00;99.90;;;;;;5070476;28;20036;-49
2023/04/10 06:03:53;;;;;;;8.47;5.80;;;10.30;99.90;;;;;;5068885;28;20033;-53
2023/04/10 06:06:20;;;;;;;9.70;5.77;;;10.60;99.90;;;;;;5068907;28;20037;-48
2023/04/10 06:08:46;;;;;;;10.27;6.37;;;10.60;99.90;;;;;;5069033;28;20515;-51
2023/04/10 06:11:12;;;;;;;10.57;6.80;;;10.80;99.70;;;;;;5070376;28;20031;-51
2023/04/10 06:13:40;;;;;;;9.35;5.60;;;11.00;99.40;;;;;;5068880;28;20059;-51
2023/04/10 06:16:07;;;;;;;10.13;6.37;;;11.20;98.60;;;;;;5069051;28;20036;-51
2023/04/10 06:18:33;;;;;;;8.83;6.13;;;11.10;98.60;;;;;;5068612;28;20033;-48
2023/04/10 06:21:00;;;;;;;9.93;6.17;;;10.90;98.50;;;;;;5070350;28;20039;-48
2023/04/10 06:23:29;;;;;;;8.63;5.90;;;10.90;98.80;;;;;;5070043;28;20032;-48
2023/04/10 06:25:55;;;;;;;9.50;5.45;;;10.80;98.90;;;;;;5068997;28;20531;-50
2023/04/10 06:28:21;;;;;;;8.73;5.73;;;10.80;98.40;;;;;;5068595;28;20033;-48
2023/04/10 06:30:50;;;;;;;9.10;6.13;;;10.70;98.50;;;;;;5068873;28;20056;-48
2023/04/10 06:33:17;;;;;;;9.27;5.80;;;10.80;98.50;;;;;;5068821;28;20082;-51
2023/04/10 06:35:44;;;;;;;7.57;5.50;;;10.90;98.20;;;;;;5052473;28;20416;-50
2023/04/10 06:38:11;;;;;;;9.83;5.80;;;11.20;98.10;;;;;;5068586;28;20128;-53
2023/04/10 06:40:36;;;;;;;7.93;5.27;;;11.60;97.30;;;;;;5068754;28;20051;-49
2023/04/10 06:43:02;;;;;;;8.23;5.07;;;12.10;96.20;;;;;;5070075;28;20485;-48
2023/04/10 06:45:38;;;;;;;8.47;5.67;;;12.30;95.40;;;;;;5070885;28;20107;-49
2023/04/10 06:48:05;;;;;;;8.47;5.43;;;12.50;95.50;;;;;;5074007;28;20064;-51
2023/04/10 06:50:30;;;;;;;8.27;5.03;;;12.50;94.80;;;;;;5074199;28;20393;-49
2023/04/10 06:52:58;;;;;;;7.50;4.13;;;12.60;94.40;;;;;;5074042;28;20032;-50
2023/04/10 06:55:28;;;;;;;8.73;5.87;;;12.80;93.90;;;;;;5073760;28;20040;-52
2023/04/10 06:57:55;;;;;;;;;;;12.70;93.80;;;;;;5074263;28;20528;-48
2023/04/10 07:00:21;;;;;;;9.33;5.77;;;12.60;93.90;;;;;;5074084;28;19909;-50
2023/04/10 07:02:47;;;;;;;8.03;5.37;;;12.60;94.10;;;;;;5073830;28;20025;-48
2023/04/10 07:05:13;;;;;;;8.13;5.17;;;12.40;93.80;;;;;;5073957;28;20400;-51
2023/04/10 07:07:39;;;;;;;8.70;5.27;;;12.20;94.10;;;;;;5074020;28;20032;-52
2023/04/10 07:10:06;;;;;;;8.37;5.03;;;12.10;94.30;;;;;;5073700;28;20020;-51
2023/04/10 07:12:32;;;;;;;7.47;4.80;;;12.10;94.30;;;;;;5072350;28;20405;-52
2023/04/10 07:14:57;;;;;;;7.97;4.93;;;12.20;93.90;;;;;;5073469;28;20037;-50
2023/04/10 07:17:23;;;;;;;7.90;4.90;;;12.40;93.70;;;;;;5073406;28;20036;-51
2023/04/10 07:19:49;;;;;;;7.83;4.93;;;12.60;93.60;;;;;;5096878;22;20040;-53
2023/04/10 07:22:15;;;;;;;8.33;5.67;;;12.70;93.20;;;;;;5094169;28;20028;-56
2023/04/10 07:24:41;;;;;;;7.73;5.73;;;12.90;93.30;;;;;;5093600;28;20380;-56
2023/04/10 07:27:06;;;;;;;9.33;5.17;;;13.00;93.50;;;;;;5093450;28;20020;-55
2023/04/10 07:29:32;;;;;;;7.53;4.67;;;13.20;92.60;;;;;;5093636;28;20473;-55
2023/04/10 07:31:58;;;;;;;8.17;5.53;;;13.00;92.20;;;;;;5093685;28;20099;-51
2023/04/10 07:34:24;;;;;;;9.60;4.90;;;12.90;92.30;;;;;;5093374;28;20473;-55
2023/04/10 07:36:51;;;;;;;7.43;5.03;;;13.00;92.40;;;;;;5093344;28;20039;-54
2023/04/10 07:39:17;;;;;;;8.47;5.10;;;13.00;92.10;;;;;;5093461;28;20400;-55
2023/04/10 07:41:43;;;;;;;7.37;5.13;;;13.00;91.90;;;;;;5093909;28;20032;-54
2023/04/10 07:44:09;;;;;;;9.80;5.50;;;13.00;92.30;;;;;;5093206;28;20400;-55
2023/04/10 07:46:35;;;;;;;13.03;7.97;;;13.00;91.90;;;;;;5093491;28;20492;-53
2023/04/10 07:49:00;;;;;;;9.50;6.03;;;13.00;92.10;;;;;;5093394;28;20039;-54
2023/04/10 07:51:27;;;;;;;8.00;5.20;;;13.10;91.80;;;;;;5093486;28;20028;-55
2023/04/10 07:53:53;;;;;;;6.90;4.60;;;13.20;91.50;;;;;;5093252;28;20404;-53
2023/04/10 07:56:20;;;;;;;7.63;5.07;;;13.40;91.40;;;;;;5092483;28;20036;-55
2023/04/10 07:58:46;;;;;;;6.88;4.72;;;13.50;91.00;;;;;;5093544;28;20445;-55
2023/04/10 08:01:12;;;;;;;7.20;4.85;;;13.70;91.20;;;;;;5093374;28;20507;-55
2023/04/10 08:03:44;;;;;;;9.00;4.40;;;13.90;90.00;;;;;;5092899;28;20036;-54
2023/04/10 08:06:10;;;;;;;8.55;5.20;;;14.10;89.80;;;;;;5093210;28;20115;-54
2023/04/10 08:08:40;;;;;;;7.57;5.10;;;14.20;89.30;;;;;;5092657;28;20404;-53
2023/04/10 08:11:23;;;;;;;9.20;4.70;;;14.60;90.00;;;;;;5093232;28;20031;-54
2023/04/10 08:13:50;;;;;;;10.88;4.60;;;14.70;87.00;;;;;;5092709;28;20043;-55
2023/04/10 08:16:19;;;;;;;9.98;5.18;;;14.60;86.50;;;;;;5092758;28;20404;-51
2023/04/10 08:18:45;;;;;;;6.38;4.30;;;14.50;86.50;;;;;;5092656;28;20123;-54
2023/04/10 08:21:11;;;;;;;7.68;4.88;;;14.20;86.80;;;;;;5092725;28;20039;-54
2023/04/10 08:23:37;;;;;;;7.05;4.43;;;14.20;86.40;;;;;;5092398;28;20040;-55
2023/04/10 08:26:03;;;;;;;7.07;4.55;;;14.20;87.00;;;;;;5092579;28;20039;-55
2023/04/10 08:28:31;;;;;;;9.20;6.30;;;14.40;86.00;;;;;;5092266;28;20107;-55
2023/04/10 08:30:57;;;;;;;8.80;5.53;;;14.30;86.20;;;;;;5092607;28;20028;-54
2023/04/10 08:33:23;;;;;;;8.05;4.50;;;14.40;86.00;;;;;;5092323;28;20043;-54
2023/04/10 08:35:48;;;;;;;6.15;3.92;;;14.30;85.20;;;;;;5092208;28;20089;-53
2023/04/10 08:38:14;;;;;;;6.07;4.03;;;14.40;85.80;;;;;;5092421;28;20040;-52
2023/04/10 08:40:40;;;;;;;5.88;4.30;;;14.60;85.70;;;;;;5092100;28;20046;-55
2023/04/10 08:43:06;;;;;;;5.50;3.30;;;14.70;84.60;;;;;;5092177;28;20032;-55
2023/04/10 08:45:32;;;;;;;6.25;3.63;;;14.70;83.90;;;;;;5092124;28;20039;-51
2023/04/10 08:48:01;;;;;;;5.65;4.13;;;14.60;84.30;;;;;;5092053;28;20120;-55
2023/04/10 08:50:32;;;;;;;6.35;4.03;;;14.40;83.80;;;;;;5091935;28;20106;-53
2023/04/10 08:53:02;;;;;;;6.28;4.15;;;14.20;84.50;;;;;;5092331;28;20115;-54
2023/04/10 08:55:28;;;;;;;5.47;3.30;;;14.20;85.70;;;;;;5091622;28;20480;-53
2023/04/10 08:57:54;;;;;;;6.65;4.13;;;14.30;84.70;;;;;;5091603;28;20107;-55
2023/04/10 09:00:19;;;;;;;7.13;3.85;;;14.30;85.60;;;;;;5091475;28;20028;-54
2023/04/10 09:02:45;;;;;;;7.22;4.20;;;14.40;85.00;;;;;;5091511;28;20487;-55
2023/04/10 09:05:14;;;;;;;6.53;3.80;;;14.30;84.70;;;;;;5091552;28;20486;-56
2023/04/10 09:07:40;;;;;;;5.82;3.72;;;14.30;84.70;;;;;;5090945;28;20035;-55
2023/04/10 09:10:06;;;;;;;6.03;4.10;;;14.30;85.00;;;;;;5089413;28;20302;-56
2023/04/10 09:12:43;;;;;;;6.05;4.20;;;14.40;85.50;;;;;;5091414;28;20064;-54
2023/04/10 09:15:10;;;;;;;8.77;6.25;;;14.60;84.70;;;;;;5091135;28;20140;-55
2023/04/10 09:17:35;;;;;;;8.07;4.13;;;14.80;83.90;;;;;;5091014;28;20028;-56
2023/04/10 09:20:01;;;;;;;5.70;4.30;;;14.90;83.00;;;;;;5090891;28;20432;-55
2023/04/10 09:22:32;;;;;;;7.00;4.15;;;15.00;83.30;;;;;;5090941;28;20056;-55
2023/04/10 09:24:59;;;;;;;6.75;3.67;;;15.40;81.70;;;;;;5090919;28;20020;-55
2023/04/10 09:27:34;;;;;;;4.63;3.10;;;15.50;82.00;;;;;;5090876;28;20047;-55
2023/04/10 09:30:01;;;;;;;4.82;3.53;;;15.50;79.80;;;;;;5090796;28;20024;-56
2023/04/10 09:32:38;;;;;;;8.25;3.90;;;15.70;80.80;;;;;;5091041;28;20032;-54
2023/04/10 09:35:06;;;;;;;11.85;7.43;;;15.80;78.90;;;;;;5090828;28;20032;-53
2023/04/10 09:37:32;;;;;;;4.63;3.25;;;15.90;80.10;;;;;;5090867;28;20484;-56
2023/04/10 09:39:58;;;;;;;4.95;3.50;;;15.90;78.70;;;;;;5091119;28;20093;-55
2023/04/10 09:42:32;;;;;;;6.80;3.20;;;15.90;80.00;;;;;;5090871;28;20435;-55
2023/04/10 09:44:59;;;;;;;6.97;3.63;;;15.90;78.80;;;;;;5090894;28;20024;-52
2023/04/10 09:47:24;;;;;;;6.10;3.70;;;15.90;78.20;;;;;;5089470;28;20060;-56
2023/04/10 09:49:55;;;;;;;5.13;3.17;;;16.00;78.00;;;;;;5090799;28;20058;-56
2023/04/10 09:52:27;;;;;;;6.18;3.50;;;16.10;78.00;;;;;;5090684;28;20502;-56
2023/04/10 09:54:55;;;;;;;5.45;2.78;;;16.30;77.90;;;;;;5089487;28;20443;-56
2023/04/10 09:57:22;;;;;;;6.38;3.40;;;16.60;76.90;;;;;;5090841;28;20109;-56
2023/04/10 09:59:56;;;;;;;4.95;3.40;;;16.70;77.20;;;;;;5090921;28;20078;-57
2023/04/10 10:02:23;;;;;;;5.18;3.08;;;16.90;75.90;;;;;;5090836;28;20039;-53
2023/04/10 10:04:51;;;;;;;5.03;3.40;;;17.00;75.70;;;;;;5090608;28;20384;-50
2023/04/10 10:07:20;;;;;;;5.28;3.42;;;17.00;74.80;;;;;;5089433;28;20032;-53
2023/04/10 10:09:47;;;;;;;5.53;3.10;;;16.50;75.40;;;;;;5090529;28;20503;-54
2023/04/10 10:12:22;;;;;;;4.18;3.00;;;16.70;74.70;;;;;;5090798;28;20085;-53
2023/04/10 10:15:08;;;;;;;4.65;2.90;;;16.60;74.80;;;;;;5090697;28;20507;-53
2023/04/10 10:17:46;;;;;;;5.57;3.20;;;16.90;74.10;;;;;;5090458;28;20127;-54
2023/04/10 10:20:16;;;;;;;4.95;3.15;;;17.50;72.70;;;;;;5090221;28;20113;-56
2023/04/10 10:22:43;;;;;;;4.72;3.03;;;18.10;71.30;;;;;;5090864;28;20122;-56
2023/04/10 10:25:09;;;;;;;4.40;3.17;;;18.60;70.40;;;;;;5090571;28;20040;-55
2023/04/10 10:27:38;;;;;;;7.75;5.22;;;19.20;68.20;;;;;;5090524;28;20039;-52
2023/04/10 10:30:08;;;;;;;3.75;2.40;;;18.70;66.20;;;;;;5090434;28;20107;-54
2023/04/10 10:32:34;;;;;;;5.70;3.80;;;18.40;66.00;;;;;;5090486;28;20032;-54
2023/04/10 10:35:02;;;;;;;8.07;5.50;;;17.80;67.40;;;;;;5090542;28;20206;-54
2023/04/10 10:37:29;;;;;;;6.47;4.32;;;17.90;68.80;;;;;;5090330;28;20040;-55
2023/04/10 10:40:25;;;;;;;5.28;3.58;;;18.00;67.60;;;;;;5090415;28;20033;-56
2023/04/10 10:43:32;;;;;;;5.28;3.40;;;18.40;66.80;;;;;;5090362;28;20032;-54
2023/04/10 10:46:05;;;;;;;5.30;2.80;;;17.90;66.50;;;;;;5081076;28;20428;-55
2023/04/10 10:48:31;;;;;;;5.18;3.08;;;17.50;67.00;;;;;;5090131;28;20107;-55
2023/04/10 10:50:59;;;;;;;3.53;2.58;;;17.40;67.60;;;;;;5090415;28;20499;-55
2023/04/10 10:53:45;;;;;;;3.90;2.92;;;17.40;67.60;;;;;;5090057;28;20071;-54
2023/04/10 10:56:19;;;;;;;4.15;2.85;;;17.20;67.70;;;;;;5090419;28;20039;-55
2023/04/10 10:58:49;;;;;;;4.00;2.80;;;17.40;68.30;;;;;;5088781;28;20028;-55
2023/04/10 11:01:15;;;;;;;5.35;3.28;;;17.60;67.10;;;;;;5090236;28;20036;-54
2023/04/10 11:03:45;;;;;;;4.80;3.13;;;17.40;67.00;;;;;;5089807;28;20028;-54
2023/04/10 11:06:18;;;;;;;4.18;2.92;;;17.30;67.70;;;;;;5072739;28;20020;-55
2023/04/10 11:08:51;;;;;;;5.53;3.10;;;17.40;68.00;;;;;;5088885;28;20040;-57
2023/04/10 11:11:26;;;;;;;4.07;2.60;;;17.40;66.70;;;;;;5090288;28;20035;-56
2023/04/10 11:13:52;;;;;;;4.15;2.85;;;17.40;66.10;;;;;;5089954;28;20032;-56
2023/04/10 11:16:19;;;;;;;4.90;3.40;;;17.40;66.10;;;;;;5090225;28;20385;-54
2023/04/10 11:18:45;;;;;;;3.97;2.50;;;17.60;66.30;;;;;;5089803;28;20480;-56
2023/04/10 11:21:11;;;;;;;6.63;3.90;;;17.60;65.60;;;;;;5090080;28;20114;-57
2023/04/10 11:23:48;;;;;;;4.90;3.03;;;17.90;66.40;;;;;;5089794;28;20366;-57
2023/04/10 11:26:38;;;;;;;5.82;2.80;;;18.30;64.80;;;;;;5090023;28;20484;-56
2023/04/10 11:29:07;;;;;;;5.25;3.50;;;18.40;63.30;;;;;;5090293;28;20028;-55
2023/04/10 11:31:33;;;;;;;5.05;3.00;;;18.40;64.50;;;;;;5090474;28;20036;-55
2023/04/10 11:34:02;;;;;;;4.30;2.97;;;18.30;63.70;;;;;;5093315;28;20035;-56
2023/04/10 11:36:29;;;;;;;5.00;2.92;;;18.10;63.70;;;;;;5093305;28;20043;-56
2023/04/10 11:39:04;;;;;;;6.10;2.85;;;17.80;63.70;;;;;;5093449;28;20028;-55
2023/04/10 11:41:32;;;;;;;4.30;2.60;;;17.60;64.90;;;;;;5093399;28;20118;-57
2023/04/10 11:44:10;;;;;;;4.35;3.00;;;17.60;65.20;;;;;;5093341;28;20032;-57
2023/04/10 11:46:38;;;;;;;4.35;2.75;;;17.80;66.10;;;;;;5093272;28;20031;-57
2023/04/10 11:49:05;;;;;;;3.70;2.53;;;17.70;64.10;;;;;;5093260;28;20107;-57
2023/04/10 11:51:32;;;;;;;4.45;3.05;;;17.60;65.00;;;;;;5093220;28;20012;-56
2023/04/10 11:54:14;;;;;;;4.38;2.67;;;17.70;65.50;;;;;;5092964;28;20663;-53
2023/04/10 11:56:44;;;;;;;3.13;2.38;;;17.60;64.00;;;;;;5092963;28;20040;-57
2023/04/10 11:59:12;;;;;;;3.75;2.42;;;17.60;64.30;;;;;;5093229;28;20051;-57
2023/04/10 12:01:39;;;;;;;4.53;3.00;;;17.60;65.00;;;;;;5093100;28;20382;-57
2023/04/10 12:04:14;;;;;;;5.53;2.80;;;17.60;64.30;;;;;;5092707;28;20032;-56
2023/04/10 12:06:46;;;;;;;5.47;2.50;;;17.70;64.10;;;;;;5092970;28;20111;-55
2023/04/10 12:09:16;;;;;;;3.55;2.38;;;17.90;64.00;;;;;;5092865;28;20035;-56
2023/04/10 12:11:54;;;;;;;3.85;2.60;;;18.00;63.70;;;;;;5092847;28;20062;-57
2023/04/10 12:14:28;;;;;;;4.57;2.97;;;18.20;63.60;;;;;;5092652;28;20039;-56
2023/04/10 12:16:53;;;;;;;3.22;2.20;;;18.40;63.70;;;;;;5091337;28;20396;-55
2023/04/10 12:19:20;;;;;;;4.22;2.60;;;18.40;62.60;;;;;;5092773;28;20032;-57
2023/04/10 12:21:46;;;;;;;4.05;2.72;;;18.30;62.90;;;;;;5092785;28;20020;-55
2023/04/10 12:24:12;;;;;;;4.05;2.60;;;18.20;62.40;;;;;;5092624;28;20036;-55
2023/04/10 12:26:38;;;;;;;3.55;2.13;;;18.00;62.80;;;;;;5092580;28;20400;-55
2023/04/10 12:29:06;;;;;;;4.30;2.65;;;18.00;62.50;;;;;;5092428;28;20103;-55
2023/04/10 12:31:33;;;;;;;5.80;2.90;;;17.90;63.00;;;;;;5092592;28;20028;-56
2023/04/10 12:34:00;;;;;;;4.97;3.00;;;18.00;64.20;;;;;;5092654;28;20028;-55
2023/04/10 12:36:28;;;;;;;3.38;2.38;;;18.10;63.00;;;;;;5092267;28;20028;-55
2023/04/10 12:38:57;;;;;;;3.75;2.47;;;18.20;63.00;;;;;;5092452;28;20107;-57
2023/04/10 12:41:27;;;;;;;4.10;2.65;;;18.00;63.40;;;;;;5092557;28;20111;-56
2023/04/10 12:44:05;;;;;;;4.28;2.60;;;17.80;63.00;;;;;;5090420;28;20029;-55
2023/04/10 12:46:31;;;;;;;3.97;2.80;;;17.90;62.70;;;;;;5092395;28;20032;-54
2023/04/10 12:49:17;;;;;;;3.63;2.50;;;18.00;62.50;;;;;;5092034;28;20028;-54
2023/04/10 12:51:42;;;;;;;3.67;2.17;;;18.10;63.00;;;;;;5092246;28;20032;-56
2023/04/10 12:54:09;;;;;;;3.20;2.50;;;17.90;62.30;;;;;;5091730;28;20032;-55
2023/04/10 12:56:46;;;;;;;4.07;2.72;;;18.10;62.60;;;;;;5092110;28;20100;-52
2023/04/10 12:59:12;;;;;;;4.50;2.80;;;18.20;62.20;;;;;;5091861;28;20074;-54
2023/04/10 13:01:38;;;;;;;5.18;2.70;;;18.10;62.00;;;;;;5092037;28;20095;-54
2023/04/10 13:04:04;;;;;;;4.80;3.10;;;18.20;62.60;;;;;;5091541;28;20028;-53
2023/04/10 13:06:29;;;;;;;4.30;2.50;;;18.20;62.50;;;;;;5091806;28;20030;-55
2023/04/10 13:08:55;;;;;;;14.73;9.48;;;18.10;62.00;;;;;;5091487;28;20114;-54